createdAt,value
2018-01-15T00:02:08.237Z,61.30
2018-01-15T00:04:36.718Z,61.20
2018-01-15T00:07:04.303Z,61.50
2018-01-15T00:09:31.972Z,61.70
2018-01-15T00:12:01.046Z,61.70
2018-01-15T00:14:29.374Z,61.80
2018-01-15T00:16:56.954Z,61.80
2018-01-15T00:19:25.025Z,61.30
2018-01-15T00:21:52.675Z,61.10
2018-01-15T00:24:20.224Z,61.20
2018-01-15T00:26:47.801Z,60.70
2018-01-15T00:29:15.880Z,61.20
2018-01-15T00:31:43.404Z,61.10
2018-01-15T00:34:10.928Z,60.80
2018-01-15T00:36:38.486Z,61.10
2018-01-15T00:39:06.747Z,61.40
2018-01-15T00:41:35.099Z,61.00
2018-01-15T00:44:02.674Z,61.00
2018-01-15T00:46:30.281Z,61.10
2018-01-15T00:48:57.876Z,61.20
2018-01-15T00:51:26.501Z,61.10
2018-01-15T00:53:55.569Z,60.90
2018-01-15T00:56:23.180Z,60.90
2018-01-15T00:58:50.701Z,61.00
2018-01-15T01:01:18.293Z,61.10
2018-01-15T01:03:45.911Z,60.60
2018-01-15T01:06:13.432Z,61.00
2018-01-15T01:08:42.006Z,60.60
2018-01-15T01:11:10.335Z,61.00
2018-01-15T01:13:37.891Z,61.00
2018-01-15T01:16:05.572Z,61.00
2018-01-15T01:18:33.137Z,60.90
2018-01-15T01:21:00.676Z,61.00
2018-01-15T01:23:29.069Z,61.30
2018-01-15T01:25:56.728Z,61.30
2018-01-15T01:28:24.465Z,61.10
2018-01-15T01:30:52.028Z,61.70
2018-01-15T01:33:19.685Z,60.90
2018-01-15T01:35:47.230Z,61.10
2018-01-15T01:38:14.751Z,61.10
2018-01-15T01:40:42.344Z,60.90
2018-01-15T01:43:09.928Z,60.90
2018-01-15T01:45:37.496Z,61.30
2018-01-15T01:48:05.062Z,61.00
2018-01-15T01:50:32.620Z,60.90
2018-01-15T01:53:00.702Z,60.90
2018-01-15T01:55:28.251Z,61.00
2018-01-15T01:57:55.781Z,61.20
2018-01-15T02:00:23.471Z,61.70
2018-01-15T02:02:51.084Z,61.70
2018-01-15T02:05:18.695Z,61.50
2018-01-15T02:07:46.271Z,61.60
2018-01-15T02:10:13.841Z,61.50
2018-01-15T02:12:41.375Z,61.90
2018-01-15T02:15:09.037Z,61.50
2018-01-15T02:17:36.588Z,61.50
2018-01-15T02:20:05.506Z,61.50
2018-01-15T02:22:33.263Z,61.50
2018-01-15T02:25:00.872Z,61.70
2018-01-15T02:27:29.254Z,61.00
2018-01-15T02:29:57.561Z,61.30
2018-01-15T02:32:25.166Z,61.30
2018-01-15T02:34:53.480Z,60.80
2018-01-15T02:37:21.115Z,60.80
2018-01-15T02:39:48.731Z,61.00
2018-01-15T02:42:16.324Z,61.10
2018-01-15T02:44:44.678Z,60.90
2018-01-15T02:47:12.229Z,60.90
2018-01-15T02:49:39.761Z,61.10
2018-01-15T02:52:07.347Z,61.00
2018-01-15T02:54:34.958Z,61.10
2018-01-15T02:57:03.069Z,61.10
2018-01-15T02:59:30.661Z,60.70
2018-01-15T03:01:58.205Z,60.50
2018-01-15T03:04:26.058Z,60.30
2018-01-15T03:06:53.596Z,60.00
2018-01-15T03:09:21.128Z,60.10
2018-01-15T03:11:48.775Z,60.00
2018-01-15T03:14:16.331Z,60.10
2018-01-15T03:16:43.866Z,60.50
2018-01-15T03:19:11.427Z,60.10
2018-01-15T03:21:38.977Z,60.10
2018-01-15T03:24:06.546Z,59.90
2018-01-15T03:26:34.141Z,60.00
2018-01-15T03:29:01.929Z,59.80
2018-01-15T03:31:30.262Z,60.20
2018-01-15T03:33:57.828Z,60.20
2018-01-15T03:36:25.659Z,60.20
2018-01-15T03:38:53.245Z,60.50
2018-01-15T03:41:20.919Z,60.10
2018-01-15T03:43:48.574Z,59.90
2018-01-15T03:46:16.089Z,60.00
2018-01-15T03:48:44.400Z,60.50
2018-01-15T03:51:12.024Z,60.50
2018-01-15T03:53:39.638Z,60.20
2018-01-15T03:56:07.231Z,60.10
2018-01-15T03:58:35.532Z,60.70
2018-01-15T04:01:03.092Z,60.50
2018-01-15T04:03:30.672Z,60.10
2018-01-15T04:05:58.215Z,60.30
2018-01-15T04:08:26.569Z,60.50
2018-01-15T04:10:54.112Z,60.40
2018-01-15T04:13:22.524Z,60.10
2018-01-15T04:15:50.109Z,60.00
2018-01-15T04:18:17.668Z,60.20
2018-01-15T04:20:45.277Z,59.80
2018-01-15T04:23:12.926Z,59.80
2018-01-15T04:25:40.485Z,60.00
2018-01-15T04:28:08.070Z,60.30
2018-01-15T04:30:35.632Z,60.20
2018-01-15T04:33:03.271Z,59.80
2018-01-15T04:35:30.851Z,59.80
2018-01-15T04:37:59.164Z,59.90
2018-01-15T04:40:26.875Z,59.90
2018-01-15T04:42:54.428Z,60.30
2018-01-15T04:45:22.810Z,60.30
2018-01-15T04:47:50.383Z,60.30
2018-01-15T04:50:18.725Z,59.90
2018-01-15T04:52:46.276Z,59.80
2018-01-15T04:55:13.864Z,60.00
2018-01-15T04:57:41.441Z,60.00
2018-01-15T05:00:09.001Z,60.10
2018-01-15T05:02:36.561Z,59.90
2018-01-15T05:05:05.025Z,60.80
2018-01-15T05:07:32.662Z,61.00
2018-01-15T05:10:00.191Z,61.20
2018-01-15T05:12:27.814Z,60.10
2018-01-15T05:14:55.405Z,59.90
2018-01-15T05:17:22.996Z,59.90
2018-01-15T05:19:50.550Z,60.20
2018-01-15T05:22:18.115Z,60.40
2018-01-15T05:24:45.700Z,60.50
2018-01-15T05:27:13.256Z,60.50
2018-01-15T05:29:40.802Z,60.20
2018-01-15T05:32:08.395Z,60.90
2018-01-15T05:34:35.943Z,60.30
2018-01-15T05:37:04.352Z,60.00
2018-01-15T05:39:31.875Z,60.00
2018-01-15T05:41:59.397Z,60.10
2018-01-15T05:44:27.032Z,60.30
2018-01-15T05:46:54.582Z,60.00
2018-01-15T05:49:22.209Z,60.30
2018-01-15T05:51:49.744Z,60.60
2018-01-15T05:54:17.268Z,60.50
2018-01-15T05:56:45.599Z,60.40
2018-01-15T05:59:13.174Z,60.30
2018-01-15T06:01:40.698Z,60.80
2018-01-15T06:04:08.253Z,60.70
2018-01-15T06:06:36.652Z,60.70
2018-01-15T06:09:04.235Z,60.60
2018-01-15T06:11:31.784Z,60.60
2018-01-15T06:13:59.352Z,60.90
2018-01-15T06:16:26.896Z,60.90
2018-01-15T06:18:54.507Z,60.60
2018-01-15T06:21:22.063Z,60.50
2018-01-15T06:23:50.394Z,60.90
2018-01-15T06:26:17.979Z,60.90
2018-01-15T06:28:45.522Z,61.10
2018-01-15T06:31:13.835Z,60.90
2018-01-15T06:33:42.167Z,60.80
2018-01-15T06:36:09.743Z,60.70
2018-01-15T06:38:37.279Z,61.00
2018-01-15T06:41:04.838Z,61.10
2018-01-15T06:43:32.514Z,61.00
2018-01-15T06:46:00.074Z,61.10
2018-01-15T06:48:27.674Z,61.20
2018-01-15T06:50:56.034Z,61.00
2018-01-15T06:53:23.620Z,61.00
2018-01-15T06:55:51.248Z,61.10
2018-01-15T06:58:18.823Z,60.70
2018-01-15T07:00:46.499Z,60.60
2018-01-15T07:03:15.543Z,60.30
2018-01-15T07:05:43.139Z,60.30
2018-01-15T07:08:10.749Z,60.60
2018-01-15T07:10:38.595Z,60.40
2018-01-15T07:13:06.208Z,60.40
2018-01-15T07:15:33.824Z,60.60
2018-01-15T07:18:01.417Z,60.30
2018-01-15T07:20:29.043Z,60.20
2018-01-15T07:22:56.591Z,60.20
2018-01-15T07:25:24.889Z,60.20
2018-01-15T07:27:52.487Z,60.00
2018-01-15T07:30:20.078Z,59.70
2018-01-15T07:32:48.450Z,59.70
2018-01-15T07:35:16.807Z,59.80
2018-01-15T07:37:44.397Z,59.70
2018-01-15T07:40:12.025Z,59.70
2018-01-15T07:42:39.565Z,59.90
2018-01-15T07:45:07.160Z,59.60
2018-01-15T07:47:34.745Z,59.60
2018-01-15T07:50:02.325Z,59.50
2018-01-15T07:52:29.873Z,59.40
2018-01-15T07:54:57.480Z,59.40
2018-01-15T07:57:24.995Z,59.50
2018-01-15T07:59:52.545Z,59.30
2018-01-15T08:02:20.937Z,59.20
2018-01-15T08:04:48.529Z,59.20
2018-01-15T08:07:16.854Z,59.20
2018-01-15T08:09:44.470Z,59.20
2018-01-15T08:12:12.104Z,58.90
2018-01-15T08:14:39.632Z,58.90
2018-01-15T08:17:07.358Z,58.90
2018-01-15T08:19:34.932Z,59.20
2018-01-15T08:22:02.525Z,59.30
2018-01-15T08:24:30.912Z,59.40
2018-01-15T08:26:58.504Z,59.40
2018-01-15T08:29:26.083Z,59.90
2018-01-15T08:31:53.716Z,59.30
2018-01-15T08:34:21.434Z,59.10
2018-01-15T08:36:48.997Z,60.10
2018-01-15T08:39:17.361Z,59.20
2018-01-15T08:41:45.724Z,59.10
2018-01-15T08:44:13.337Z,59.00
2018-01-15T08:46:41.663Z,58.60
2018-01-15T08:49:09.283Z,58.60
2018-01-15T08:51:36.937Z,58.60
2018-01-15T08:54:04.581Z,58.40
2018-01-15T08:56:32.118Z,58.30
2018-01-15T08:58:59.691Z,58.30
2018-01-15T09:01:27.933Z,58.20
2018-01-15T09:03:55.569Z,58.10
2018-01-15T09:06:23.207Z,57.90
2018-01-15T09:08:51.545Z,58.10
2018-01-15T09:11:19.180Z,58.10
2018-01-15T09:13:46.739Z,57.90
2018-01-15T09:16:14.329Z,57.70
2018-01-15T09:18:41.888Z,57.90
2018-01-15T09:21:09.576Z,57.70
2018-01-15T09:23:37.141Z,57.60
2018-01-15T09:26:04.706Z,57.80
2018-01-15T09:28:32.341Z,57.70
2018-01-15T09:30:59.964Z,57.60
2018-01-15T09:33:27.600Z,57.50
2018-01-15T09:35:55.928Z,57.70
2018-01-15T09:38:23.473Z,57.60
2018-01-15T09:40:51.080Z,57.60
2018-01-15T09:43:18.703Z,57.40
2018-01-15T09:45:47.207Z,57.50
2018-01-15T09:48:14.826Z,57.50
2018-01-15T09:50:42.424Z,57.40
2018-01-15T09:53:10.033Z,57.70
2018-01-15T09:55:37.601Z,57.50
2018-01-15T09:58:05.182Z,57.30
2018-01-15T10:00:32.792Z,57.20
2018-01-15T10:03:00.349Z,57.20
2018-01-15T10:05:27.981Z,57.20
2018-01-15T10:07:56.294Z,57.40
2018-01-15T10:10:23.911Z,57.30
2018-01-15T10:12:51.538Z,57.20
2018-01-15T10:15:19.877Z,57.00
2018-01-15T10:17:47.448Z,57.00
2018-01-15T10:20:15.043Z,57.10
2018-01-15T10:22:42.723Z,57.20
2018-01-15T10:25:11.032Z,57.20
2018-01-15T10:27:39.387Z,56.50
2018-01-15T10:30:06.966Z,56.80
2018-01-15T10:32:34.529Z,56.80
2018-01-15T10:35:02.263Z,57.00
2018-01-15T10:37:29.931Z,57.10
2018-01-15T10:39:57.534Z,56.80
2018-01-15T10:42:25.152Z,56.90
2018-01-15T10:44:52.752Z,56.90
2018-01-15T10:47:20.269Z,57.10
2018-01-15T10:49:47.843Z,56.80
2018-01-15T10:52:15.407Z,56.90
2018-01-15T10:54:43.045Z,57.10
2018-01-15T10:57:10.594Z,56.80
2018-01-15T10:59:38.256Z,57.30
2018-01-15T11:02:06.186Z,56.30
2018-01-15T11:04:33.829Z,56.20
2018-01-15T11:07:01.410Z,56.00
2018-01-15T11:09:29.037Z,56.30
2018-01-15T11:11:56.691Z,56.70
2018-01-15T11:14:24.224Z,56.50
2018-01-15T11:16:51.750Z,56.30
2018-01-15T11:19:19.783Z,56.50
2018-01-15T11:21:47.341Z,56.30
2018-01-15T11:24:14.905Z,56.10
2018-01-15T11:26:42.476Z,55.90
2018-01-15T11:29:10.020Z,56.10
2018-01-15T11:31:37.583Z,56.10
2018-01-15T11:34:05.103Z,56.10
2018-01-15T11:36:33.432Z,56.30
2018-01-15T11:39:01.004Z,56.30
2018-01-15T11:41:28.839Z,56.50
2018-01-15T11:43:56.414Z,56.20
2018-01-15T11:46:23.931Z,56.10
2018-01-15T11:48:52.234Z,55.80
2018-01-15T11:51:19.778Z,55.80
2018-01-15T11:53:47.331Z,55.90
2018-01-15T11:56:14.820Z,56.00
2018-01-15T11:58:42.447Z,56.00
2018-01-15T12:01:10.119Z,56.20
2018-01-15T12:03:37.694Z,56.40
2018-01-15T12:06:05.291Z,56.70
2018-01-15T12:08:32.818Z,56.50
2018-01-15T12:11:00.376Z,56.40
2018-01-15T12:13:27.917Z,56.50
2018-01-15T12:15:55.497Z,56.40
2018-01-15T12:18:23.044Z,56.40
2018-01-15T12:20:50.927Z,56.60
2018-01-15T12:23:18.516Z,56.10
2018-01-15T12:25:46.183Z,56.10
2018-01-15T12:28:13.763Z,56.30
2018-01-15T12:30:41.336Z,56.40
2018-01-15T12:33:10.494Z,56.60
2018-01-15T12:35:38.077Z,56.60
2018-01-15T12:38:05.678Z,56.50
2018-01-15T12:40:33.228Z,56.60
2018-01-15T12:43:00.826Z,56.80
2018-01-15T12:45:28.371Z,56.90
2018-01-15T12:47:55.965Z,56.50
2018-01-15T12:50:24.406Z,56.60
2018-01-15T12:52:51.941Z,56.40
2018-01-15T12:55:19.543Z,56.00
2018-01-15T12:57:47.881Z,56.10
2018-01-15T13:00:15.687Z,56.10
2018-01-15T13:02:43.290Z,56.10
2018-01-15T13:05:11.617Z,55.90
2018-01-15T13:07:50.879Z,55.90
2018-01-15T13:10:19.165Z,55.80
2018-01-15T13:12:47.576Z,55.70
2018-01-15T13:15:15.450Z,55.60
2018-01-15T13:17:43.061Z,55.50
2018-01-15T13:20:11.327Z,55.60
2018-01-15T13:22:38.927Z,55.90
2018-01-15T13:25:07.267Z,55.80
2018-01-15T13:27:35.785Z,55.70
2018-01-15T13:30:03.760Z,55.60
2018-01-15T13:32:32.101Z,56.10
2018-01-15T13:34:59.717Z,56.10
2018-01-15T13:37:27.344Z,56.00
2018-01-15T13:39:54.957Z,55.40
2018-01-15T13:42:22.501Z,55.10
2018-01-15T13:44:50.111Z,55.10
2018-01-15T13:47:17.714Z,55.10
2018-01-15T13:49:46.869Z,55.20
2018-01-15T13:52:14.455Z,55.30
2018-01-15T13:54:42.763Z,55.70
2018-01-15T13:57:10.375Z,55.70
2018-01-15T13:59:40.396Z,55.70
2018-01-15T14:02:09.444Z,55.90
2018-01-15T14:04:40.149Z,56.80
2018-01-15T14:07:09.287Z,56.10
2018-01-15T14:09:38.080Z,55.50
2018-01-15T14:12:06.067Z,55.80
2018-01-15T14:14:34.083Z,56.10
2018-01-15T14:17:02.509Z,56.20
2018-01-15T14:19:30.144Z,56.20
2018-01-15T14:21:57.717Z,56.00
2018-01-15T14:24:26.124Z,55.70
2018-01-15T14:26:53.848Z,56.10
2018-01-15T14:29:21.425Z,55.90
2018-01-15T14:31:49.608Z,56.30
2018-01-15T14:34:17.991Z,56.50
2018-01-15T14:36:45.561Z,56.40
2018-01-15T14:39:13.144Z,56.50
2018-01-15T14:41:41.524Z,56.70
2018-01-15T14:44:09.980Z,56.40
2018-01-15T14:46:37.563Z,56.40
2018-01-15T14:49:06.398Z,56.70
2018-01-15T14:51:34.900Z,56.70
2018-01-15T14:54:02.471Z,56.90
2018-01-15T14:56:30.215Z,57.00
2018-01-15T14:58:58.624Z,57.50
2018-01-15T15:01:26.880Z,56.70
2018-01-15T15:03:55.287Z,57.00
2018-01-15T15:06:23.857Z,56.70
2018-01-15T15:08:51.510Z,56.60
2018-01-15T15:11:19.112Z,56.70
2018-01-15T15:13:47.669Z,57.70
2018-01-15T15:16:15.235Z,57.70
2018-01-15T15:18:43.559Z,56.90
2018-01-15T15:21:11.178Z,56.90
2018-01-15T15:23:38.728Z,56.80
2018-01-15T15:26:06.282Z,56.50
2018-01-15T15:28:33.977Z,56.50
2018-01-15T15:31:02.406Z,56.00
2018-01-15T15:33:29.954Z,56.00
2018-01-15T15:35:57.486Z,56.10
2018-01-15T15:38:26.411Z,56.10
2018-01-15T15:40:53.961Z,56.10
2018-01-15T15:43:21.543Z,56.50
2018-01-15T15:45:49.068Z,56.30
2018-01-15T15:48:16.617Z,56.50
2018-01-15T15:50:44.234Z,56.60
2018-01-15T15:53:11.871Z,56.70
2018-01-15T15:55:39.420Z,56.50
2018-01-15T16:11:03.130Z,57.90
2018-01-15T16:13:31.106Z,57.90
2018-01-15T16:15:59.493Z,58.30
2018-01-15T16:18:27.050Z,58.20
2018-01-15T16:20:54.630Z,58.00
2018-01-15T16:23:22.248Z,58.20
2018-01-15T16:25:50.621Z,57.60
2018-01-15T16:28:19.305Z,57.60
2018-01-15T16:30:46.865Z,57.80
2018-01-15T16:33:14.698Z,57.50
2018-01-15T16:35:42.311Z,57.50
2018-01-15T16:38:09.879Z,57.70
2018-01-15T16:40:37.524Z,57.60
2018-01-15T16:43:05.089Z,56.90
2018-01-15T16:45:32.683Z,57.10
2018-01-15T16:48:00.940Z,57.10
2018-01-15T16:50:29.313Z,56.90
2018-01-15T16:52:58.280Z,56.80
2018-01-15T16:55:27.695Z,56.50
2018-01-15T16:57:56.947Z,56.70
2018-01-15T17:00:25.376Z,56.80
2018-01-15T17:02:53.760Z,56.80
2018-01-15T17:05:22.176Z,56.80
2018-01-15T17:07:49.762Z,56.60
2018-01-15T17:10:17.344Z,56.70
2018-01-15T17:12:44.935Z,56.70
2018-01-15T17:15:13.272Z,56.90
2018-01-15T17:17:40.913Z,56.80
2018-01-15T17:20:09.009Z,56.90
2018-01-15T17:22:36.643Z,56.80
2018-01-15T17:25:05.844Z,56.50
2018-01-15T17:37:25.056Z,56.10
2018-01-15T17:42:55.862Z,56.90
2018-01-15T17:45:44.733Z,56.80
2018-01-15T17:48:13.585Z,57.30
2018-01-15T17:50:41.178Z,57.10
2018-01-15T17:53:08.917Z,57.30
2018-01-15T17:55:36.516Z,57.20
2018-01-15T17:58:04.086Z,57.10
2018-01-15T18:00:32.753Z,57.20
2018-01-15T18:03:01.572Z,57.10
2018-01-15T18:05:29.241Z,57.50
2018-01-15T18:07:56.811Z,57.50
2018-01-15T18:10:24.362Z,57.80
2018-01-15T18:12:52.088Z,58.10
2018-01-15T18:15:19.634Z,58.00
2018-01-15T18:17:47.244Z,58.20
2018-01-15T18:20:15.069Z,58.20
2018-01-15T18:22:42.644Z,58.20
2018-01-15T18:25:10.224Z,58.40
2018-01-15T18:27:37.887Z,58.30
2018-01-15T18:30:05.710Z,58.40
2018-01-15T18:32:33.359Z,58.40
2018-01-15T18:35:00.954Z,58.50
2018-01-15T18:37:28.671Z,58.60
2018-01-15T18:39:56.311Z,58.90
2018-01-15T18:42:23.959Z,58.60
2018-01-15T18:44:52.292Z,58.40
2018-01-15T18:47:19.906Z,58.40
2018-01-15T18:49:48.222Z,58.60
2018-01-15T18:52:15.774Z,58.60
2018-01-15T18:54:43.358Z,58.70
2018-01-15T18:57:10.920Z,58.60
2018-01-15T18:59:38.527Z,58.50
2018-01-15T19:02:07.110Z,58.80
2018-01-15T19:04:34.708Z,59.40
2018-01-15T19:07:02.279Z,58.80
2018-01-15T19:09:29.846Z,59.00
2018-01-15T19:11:57.456Z,59.00
2018-01-15T19:14:25.810Z,58.90
2018-01-15T19:16:53.352Z,58.90
2018-01-15T19:19:20.975Z,58.90
2018-01-15T19:21:49.155Z,58.90
2018-01-15T19:24:16.759Z,59.10
2018-01-15T19:26:45.365Z,58.90
2018-01-15T19:29:12.924Z,59.00
2018-01-15T19:31:40.566Z,59.30
2018-01-15T19:34:08.540Z,59.10
2018-01-15T19:36:40.007Z,59.00
2018-01-15T19:39:12.725Z,59.20
2018-01-15T19:41:40.853Z,59.40
2018-01-15T19:44:27.270Z,59.20
2018-01-15T19:47:00.443Z,59.20
2018-01-15T19:49:33.551Z,59.50
2018-01-15T19:52:07.605Z,59.40
2018-01-15T19:54:40.870Z,59.40
2018-01-15T19:57:13.980Z,59.80
2018-01-15T19:59:47.049Z,59.90
2018-01-15T20:02:20.167Z,59.90
2018-01-15T20:04:54.213Z,59.90
2018-01-15T20:07:27.764Z,59.50
2018-01-15T20:10:01.737Z,59.80
2018-01-15T20:12:29.369Z,60.00
2018-01-15T20:14:57.049Z,60.00
2018-01-15T20:17:25.233Z,60.10
2018-01-15T20:19:52.835Z,59.80
2018-01-15T20:22:20.419Z,59.80
2018-01-15T20:24:48.202Z,59.60
2018-01-15T20:27:17.461Z,59.50
2018-01-15T20:29:45.225Z,59.60
2018-01-15T20:32:12.764Z,59.40
2018-01-15T20:34:40.345Z,59.30
2018-01-15T20:37:08.003Z,59.40
2018-01-15T20:39:35.783Z,59.30
2018-01-15T20:42:03.329Z,59.50
2018-01-15T20:44:30.935Z,59.70
2018-01-15T20:46:58.568Z,59.70
2018-01-15T20:49:27.069Z,60.60
2018-01-15T20:51:54.675Z,60.00
2018-01-15T20:54:22.331Z,59.80
2018-01-15T20:56:49.849Z,59.80
2018-01-15T20:59:17.587Z,59.90
2018-01-15T21:01:45.302Z,59.80
2018-01-15T21:04:13.142Z,59.70
2018-01-15T21:06:40.732Z,59.90
2018-01-15T21:09:09.066Z,60.00
2018-01-15T21:11:36.657Z,60.00
2018-01-15T21:14:04.215Z,59.60
2018-01-15T21:16:31.925Z,59.30
2018-01-15T21:18:59.482Z,59.40
2018-01-15T21:21:27.093Z,59.40
2018-01-15T21:23:54.691Z,59.50
2018-01-15T21:26:23.192Z,59.60
2018-01-15T21:28:50.862Z,59.50
2018-01-15T21:31:18.413Z,59.40
2018-01-15T21:33:45.976Z,59.40
2018-01-15T21:36:13.569Z,59.30
2018-01-15T21:38:41.189Z,59.30
2018-01-15T21:41:12.848Z,59.50
2018-01-15T21:43:41.593Z,59.30
2018-01-15T21:46:09.432Z,59.20
2018-01-15T21:48:37.033Z,59.10
2018-01-15T21:51:05.410Z,59.10
2018-01-15T21:53:32.962Z,59.10
2018-01-15T21:56:00.591Z,59.30
2018-01-15T21:58:28.145Z,59.00
2018-01-15T22:00:55.686Z,59.00
2018-01-15T22:03:23.280Z,59.10
2018-01-15T22:05:51.618Z,59.10
2018-01-15T22:08:19.238Z,59.10
2018-01-15T22:10:47.060Z,59.20
2018-01-15T22:13:14.613Z,59.10
2018-01-15T22:15:42.187Z,59.30
2018-01-15T22:18:09.839Z,59.20
2018-01-15T22:20:37.423Z,59.10
2018-01-15T22:23:05.236Z,58.90
2018-01-15T22:25:33.053Z,59.00
2018-01-15T22:28:01.387Z,59.20
2018-01-15T22:30:29.009Z,59.00
2018-01-15T22:32:56.668Z,59.00
2018-01-15T22:35:24.985Z,59.00
2018-01-15T22:37:52.744Z,59.00
2018-01-15T22:40:21.116Z,59.30
2018-01-15T22:42:49.503Z,59.10
2018-01-15T22:45:17.112Z,59.00
2018-01-15T22:47:44.720Z,59.30
2018-01-15T22:50:13.072Z,59.30
2018-01-15T22:52:40.636Z,59.20
2018-01-15T22:55:08.260Z,59.30
2018-01-15T22:57:35.826Z,59.70
2018-01-15T23:00:03.624Z,59.30
2018-01-15T23:02:32.043Z,59.60
2018-01-15T23:04:59.609Z,60.20
2018-01-15T23:07:27.246Z,59.90
2018-01-15T23:09:54.839Z,60.00
2018-01-15T23:12:22.410Z,59.90
2018-01-15T23:14:49.987Z,59.90
2018-01-15T23:17:17.605Z,60.00
2018-01-15T23:19:45.212Z,60.00
2018-01-15T23:22:12.804Z,60.60
2018-01-15T23:24:40.355Z,59.90
2018-01-15T23:27:08.013Z,59.90
2018-01-15T23:29:36.398Z,59.80
2018-01-15T23:32:04.754Z,59.70
2018-01-15T23:34:32.343Z,59.60
2018-01-15T23:37:00.680Z,60.00
2018-01-15T23:39:28.325Z,60.00
2018-01-15T23:41:55.871Z,60.10
2018-01-15T23:44:23.721Z,60.40
2018-01-15T23:46:51.252Z,60.40
2018-01-15T23:49:18.806Z,60.50
2018-01-15T23:51:46.380Z,60.30
2018-01-15T23:54:25.829Z,60.10
2018-01-15T23:56:53.378Z,60.10
2018-01-15T23:59:20.973Z,60.10
